createdAt,value
2019-05-20T00:00:03.766Z,15.63
2019-05-20T00:02:32.149Z,17.33
2019-05-20T00:05:00.532Z,15.70
2019-05-20T00:07:28.902Z,16.17
2019-05-20T00:09:57.334Z,15.33
2019-05-20T00:12:25.723Z,15.90
2019-05-20T00:14:54.072Z,17.03
2019-05-20T00:17:22.445Z,17.70
2019-05-20T00:19:50.926Z,15.63
2019-05-20T00:22:19.475Z,15.40
2019-05-20T00:24:47.839Z,15.63
2019-05-20T00:27:16.266Z,15.47
2019-05-20T00:29:44.774Z,16.67
2019-05-20T00:32:13.127Z,16.53
2019-05-20T00:34:41.500Z,18.37
2019-05-20T00:37:10.034Z,18.17
2019-05-20T00:39:38.498Z,19.07
2019-05-20T00:42:06.923Z,17.63
2019-05-20T00:44:35.302Z,18.77
2019-05-20T00:47:03.780Z,18.43
2019-05-20T00:49:32.151Z,19.23
2019-05-20T00:52:00.607Z,18.30
2019-05-20T00:54:29.039Z,18.30
2019-05-20T00:56:57.403Z,19.10
2019-05-20T00:59:25.860Z,20.40
2019-05-20T01:01:54.392Z,18.77
2019-05-20T01:04:22.920Z,19.67
2019-05-20T01:06:51.387Z,20.07
2019-05-20T01:09:19.758Z,19.03
2019-05-20T01:11:48.251Z,20.23
2019-05-20T01:14:16.615Z,22.67
2019-05-20T01:16:45.142Z,21.13
2019-05-20T01:19:13.596Z,21.53
2019-05-20T01:21:42.014Z,24.87
2019-05-20T01:24:10.493Z,24.60
2019-05-20T01:26:38.846Z,24.43
2019-05-20T01:29:07.330Z,22.97
2019-05-20T01:31:35.780Z,24.93
2019-05-20T01:34:04.282Z,24.97
2019-05-20T01:36:32.673Z,25.73
2019-05-20T01:39:01.098Z,24.93
2019-05-20T01:41:29.580Z,26.03
2019-05-20T01:43:57.951Z,24.77
2019-05-20T01:46:26.410Z,24.50
2019-05-20T01:48:54.854Z,24.77
2019-05-20T01:51:23.324Z,24.10
2019-05-20T01:53:51.702Z,24.80
2019-05-20T01:56:20.075Z,24.50
2019-05-20T01:58:48.443Z,24.17
2019-05-20T02:01:16.850Z,23.97
2019-05-20T02:03:45.347Z,24.13
2019-05-20T02:06:13.790Z,24.13
2019-05-20T02:08:42.406Z,23.23
2019-05-20T02:11:10.847Z,25.17
2019-05-20T02:13:55.506Z,25.83
2019-05-20T02:16:24.343Z,25.23
2019-05-20T02:18:52.723Z,26.13
2019-05-20T02:21:21.112Z,28.00
2019-05-20T02:23:49.559Z,25.57
2019-05-20T02:26:17.970Z,27.40
2019-05-20T02:28:46.435Z,30.03
2019-05-20T02:31:14.811Z,28.03
2019-05-20T02:33:51.531Z,30.03
2019-05-20T02:36:13.318Z,29.90
2019-05-20T02:38:41.672Z,32.33
2019-05-20T02:41:10.123Z,34.23
2019-05-20T02:43:38.495Z,34.47
2019-05-20T02:46:06.937Z,34.40
2019-05-20T02:48:35.522Z,35.80
2019-05-20T02:51:03.979Z,36.80
2019-05-20T02:53:32.414Z,34.53
2019-05-20T02:56:00.902Z,34.87
2019-05-20T02:58:29.468Z,35.13
2019-05-20T03:00:57.935Z,34.10
2019-05-20T03:03:26.363Z,33.40
2019-05-20T03:05:54.806Z,33.37
2019-05-20T03:08:23.199Z,35.23
2019-05-20T03:10:51.615Z,36.23
2019-05-20T03:13:20.060Z,38.20
2019-05-20T03:15:48.575Z,39.17
2019-05-20T03:18:16.948Z,39.23
2019-05-20T03:21:04.777Z,41.83
2019-05-20T03:23:33.251Z,37.70
2019-05-20T03:26:01.727Z,42.10
2019-05-20T03:28:30.173Z,45.87
2019-05-20T03:30:58.654Z,45.83
2019-05-20T03:33:27.165Z,46.27
2019-05-20T03:35:55.724Z,46.57
2019-05-20T03:38:24.188Z,50.43
2019-05-20T03:40:52.585Z,50.87
2019-05-20T03:43:21.076Z,52.47
2019-05-20T03:45:49.653Z,52.47
2019-05-20T03:48:18.279Z,53.33
2019-05-20T03:50:46.935Z,51.73
2019-05-20T03:53:15.426Z,54.07
2019-05-20T03:55:44.579Z,52.33
2019-05-20T03:58:13.984Z,55.07
2019-05-20T04:00:43.858Z,56.20
2019-05-20T04:03:12.901Z,52.53
2019-05-20T04:05:41.453Z,48.43
2019-05-20T04:08:09.917Z,54.90
2019-05-20T04:10:38.445Z,51.70
2019-05-20T04:13:06.948Z,52.37
2019-05-20T04:15:35.432Z,51.03
2019-05-20T04:18:03.903Z,54.57
2019-05-20T04:20:32.403Z,47.40
2019-05-20T04:23:00.911Z,50.73
2019-05-20T04:25:29.390Z,53.03
2019-05-20T04:27:57.908Z,54.40
2019-05-20T04:30:26.416Z,55.67
2019-05-20T04:32:54.966Z,57.23
2019-05-20T04:35:24.504Z,55.23
2019-05-20T04:37:53.182Z,61.00
2019-05-20T04:40:21.727Z,58.80
2019-05-20T04:42:50.206Z,61.97
2019-05-20T04:45:19.192Z,58.73
2019-05-20T04:47:47.895Z,54.37
2019-05-20T04:50:16.414Z,59.10
2019-05-20T04:52:44.895Z,64.70
2019-05-20T04:55:13.354Z,63.30
2019-05-20T04:57:41.797Z,64.07
2019-05-20T05:00:10.468Z,62.10
2019-05-20T05:02:42.937Z,63.90
2019-05-20T05:05:09.221Z,57.63
2019-05-20T05:07:37.715Z,53.30
2019-05-20T05:10:07.673Z,59.70
2019-05-20T05:12:36.140Z,62.07
2019-05-20T05:15:07.893Z,60.37
2019-05-20T05:17:35.588Z,58.63
2019-05-20T05:20:04.199Z,59.30
2019-05-20T05:22:32.654Z,60.67
2019-05-20T05:25:01.182Z,61.83
2019-05-20T05:27:29.612Z,60.87
2019-05-20T05:29:58.079Z,59.30
2019-05-20T05:32:54.944Z,58.20
2019-05-20T05:35:23.390Z,54.83
2019-05-20T05:37:51.969Z,64.53
2019-05-20T05:40:22.103Z,55.33
2019-05-20T05:42:50.579Z,54.23
2019-05-20T05:45:20.542Z,56.07
2019-05-20T05:47:48.957Z,61.77
2019-05-20T05:50:17.395Z,60.67
2019-05-20T05:52:46.271Z,60.63
2019-05-20T05:55:14.855Z,57.13
2019-05-20T05:57:43.235Z,57.43
2019-05-20T06:00:11.795Z,61.13
2019-05-20T06:02:40.381Z,58.60
2019-05-20T06:05:09.045Z,61.33
2019-05-20T06:07:37.714Z,58.07
2019-05-20T06:10:06.547Z,56.13
2019-05-20T06:12:35.310Z,57.50
2019-05-20T06:15:03.919Z,49.97
2019-05-20T06:17:32.340Z,52.67
2019-05-20T06:20:00.746Z,53.90
2019-05-20T06:22:29.363Z,53.93
2019-05-20T06:25:00.288Z,56.60
2019-05-20T06:27:28.755Z,55.20
2019-05-20T06:29:57.205Z,58.20
2019-05-20T06:32:25.671Z,56.70
2019-05-20T06:34:54.111Z,54.83
2019-05-20T06:37:24.561Z,57.57
2019-05-20T06:39:53.003Z,52.70
2019-05-20T06:42:21.458Z,52.10
2019-05-20T06:44:53.152Z,52.93
2019-05-20T06:47:20.081Z,52.80
2019-05-20T06:49:48.566Z,50.80
2019-05-20T06:52:16.934Z,53.70
2019-05-20T06:54:45.374Z,51.67
2019-05-20T06:57:13.750Z,52.37
2019-05-20T06:59:42.251Z,52.67
2019-05-20T07:02:10.766Z,51.47
2019-05-20T07:04:39.208Z,50.33
2019-05-20T07:07:20.389Z,50.90
2019-05-20T07:09:37.879Z,50.20
2019-05-20T07:12:06.367Z,48.37
2019-05-20T07:14:34.824Z,51.27
2019-05-20T07:17:03.334Z,51.90
2019-05-20T07:19:31.766Z,47.30
2019-05-20T07:22:00.159Z,50.40
2019-05-20T07:24:28.594Z,50.47
2019-05-20T07:26:57.049Z,47.13
2019-05-20T07:29:25.419Z,49.77
2019-05-20T07:31:53.797Z,47.37
2019-05-20T07:34:22.267Z,49.20
2019-05-20T07:37:02.762Z,48.60
2019-05-20T07:39:20.834Z,47.57
2019-05-20T07:41:49.331Z,48.93
2019-05-20T07:44:17.763Z,51.57
2019-05-20T07:46:46.317Z,51.03
2019-05-20T07:49:15.178Z,48.33
2019-05-20T07:51:44.414Z,47.90
2019-05-20T07:54:13.916Z,48.40
2019-05-20T07:56:43.860Z,49.57
2019-05-20T07:59:13.907Z,50.80
2019-05-20T08:01:42.384Z,51.83
2019-05-20T08:04:10.844Z,50.67
2019-05-20T08:06:39.288Z,50.27
2019-05-20T08:09:07.863Z,47.83
2019-05-20T08:11:36.419Z,47.27
2019-05-20T08:14:04.891Z,46.90
2019-05-20T08:16:33.350Z,48.37
2019-05-20T08:19:01.819Z,47.17
2019-05-20T08:21:30.252Z,46.00
2019-05-20T08:23:58.710Z,46.60
2019-05-20T08:26:27.228Z,47.60
2019-05-20T08:28:55.864Z,48.03
2019-05-20T08:31:24.397Z,45.03
2019-05-20T08:33:52.795Z,45.17
2019-05-20T08:36:21.323Z,47.23
2019-05-20T08:38:49.774Z,47.40
2019-05-20T08:41:18.567Z,47.57
2019-05-20T08:43:47.135Z,49.70
2019-05-20T08:46:15.654Z,46.47
2019-05-20T08:48:44.178Z,45.27
2019-05-20T08:51:12.739Z,46.27
2019-05-20T08:53:41.280Z,45.37
2019-05-20T08:56:09.864Z,46.63
2019-05-20T08:58:38.378Z,44.87
2019-05-20T09:01:07.567Z,42.33
2019-05-20T09:03:37.619Z,42.57
2019-05-20T09:06:06.097Z,38.80
2019-05-20T09:08:34.544Z,35.93
2019-05-20T09:11:02.929Z,36.87
2019-05-20T09:13:31.373Z,34.63
2019-05-20T09:15:59.853Z,35.77
2019-05-20T09:18:28.321Z,36.37
2019-05-20T09:20:56.851Z,35.23
2019-05-20T09:23:25.370Z,34.87
2019-05-20T09:25:53.882Z,37.40
2019-05-20T09:28:22.349Z,37.40
2019-05-20T09:30:51.012Z,36.43
2019-05-20T09:33:19.555Z,37.43
2019-05-20T09:35:48.148Z,37.70
2019-05-20T09:38:20.748Z,37.03
2019-05-20T09:40:47.343Z,37.60
2019-05-20T09:43:15.954Z,40.00
2019-05-20T09:45:44.503Z,38.57
2019-05-20T09:48:13.045Z,38.63
2019-05-20T09:50:41.506Z,37.97
2019-05-20T09:53:10.065Z,38.40
2019-05-20T09:55:38.893Z,38.00
2019-05-20T09:58:07.384Z,38.60
2019-05-20T10:00:35.852Z,38.73
2019-05-20T10:03:05.155Z,38.03
2019-05-20T10:05:37.139Z,35.27
2019-05-20T10:08:04.653Z,36.00
2019-05-20T10:10:33.158Z,35.53
2019-05-20T10:13:01.874Z,37.10
2019-05-20T10:15:30.482Z,36.57
2019-05-20T10:17:58.955Z,37.20
2019-05-20T10:20:27.515Z,34.00
2019-05-20T10:22:56.138Z,35.23
2019-05-20T10:25:24.848Z,34.63
2019-05-20T10:27:57.344Z,35.77
2019-05-20T10:30:23.595Z,34.77
2019-05-20T10:32:52.089Z,33.87
2019-05-20T10:35:20.557Z,33.33
2019-05-20T10:37:49.008Z,35.80
2019-05-20T10:40:17.504Z,33.43
2019-05-20T10:42:45.895Z,33.10
2019-05-20T10:45:14.434Z,32.73
2019-05-20T10:47:42.880Z,33.83
2019-05-20T10:50:13.254Z,33.67
2019-05-20T10:52:41.717Z,32.83
2019-05-20T10:55:10.152Z,32.00
2019-05-20T10:57:38.644Z,30.90
2019-05-20T11:00:07.883Z,31.33
2019-05-20T11:02:36.349Z,30.07
2019-05-20T11:05:04.842Z,30.93
2019-05-20T11:07:33.387Z,31.13
2019-05-20T11:10:01.819Z,29.43
2019-05-20T11:12:30.221Z,29.70
2019-05-20T11:14:58.658Z,30.83
2019-05-20T11:17:27.127Z,30.67
2019-05-20T11:19:55.642Z,30.37
2019-05-20T11:22:24.002Z,29.97
2019-05-20T11:24:52.467Z,30.53
2019-05-20T11:27:20.920Z,32.53
2019-05-20T11:29:49.358Z,29.77
2019-05-20T11:32:18.968Z,29.33
2019-05-20T11:34:47.604Z,32.10
2019-05-20T11:37:16.158Z,32.23
2019-05-20T11:39:44.520Z,33.10
2019-05-20T11:42:12.977Z,30.40
2019-05-20T11:44:41.451Z,31.70
2019-05-20T11:47:09.922Z,33.10
2019-05-20T11:49:38.401Z,30.97
2019-05-20T11:52:07.067Z,32.77
2019-05-20T11:54:35.679Z,32.90
2019-05-20T11:57:04.321Z,31.23
2019-05-20T11:59:32.684Z,31.70
2019-05-20T12:02:03.932Z,32.10
2019-05-20T12:04:31.238Z,31.27
2019-05-20T12:06:59.820Z,31.27
2019-05-20T12:09:28.266Z,30.37
2019-05-20T12:12:06.798Z,32.33
2019-05-20T12:15:27.897Z,31.67
2019-05-20T12:17:29.694Z,32.43
2019-05-20T12:20:07.769Z,31.73
2019-05-20T12:22:37.210Z,32.17
2019-05-20T12:25:07.868Z,32.63
2019-05-20T12:27:36.300Z,33.00
2019-05-20T12:30:06.091Z,33.60
2019-05-20T12:32:34.676Z,33.33
2019-05-20T12:35:03.231Z,33.90
2019-05-20T12:37:31.816Z,32.27
2019-05-20T12:40:07.013Z,33.30
2019-05-20T12:42:30.627Z,33.30
2019-05-20T12:44:59.067Z,33.97
2019-05-20T12:47:27.457Z,31.53
2019-05-20T12:49:56.034Z,34.13
2019-05-20T12:52:24.565Z,33.07
2019-05-20T12:55:07.038Z,34.27
2019-05-20T12:57:23.356Z,34.27
2019-05-20T12:59:51.885Z,34.10
2019-05-20T13:02:20.294Z,33.53
2019-05-20T13:04:48.883Z,34.23
2019-05-20T13:07:17.514Z,32.67
2019-05-20T13:09:46.034Z,32.90
2019-05-20T13:12:14.567Z,35.13
2019-05-20T13:14:42.983Z,33.87
2019-05-20T13:17:11.675Z,32.73
2019-05-20T13:19:40.218Z,31.63
2019-05-20T13:22:08.791Z,33.07
2019-05-20T13:24:37.281Z,33.17
2019-05-20T13:27:05.877Z,34.23
2019-05-20T13:29:34.377Z,33.20
2019-05-20T13:32:03.196Z,33.13
2019-05-20T13:34:31.694Z,30.67
2019-05-20T13:37:00.814Z,33.80
2019-05-20T13:39:29.305Z,31.43
2019-05-20T13:41:57.873Z,34.17
2019-05-20T13:44:26.345Z,31.80
2019-05-20T13:46:54.833Z,32.17
2019-05-20T13:49:23.358Z,31.43
2019-05-20T13:51:51.821Z,32.77
2019-05-20T13:54:20.491Z,33.27
2019-05-20T13:56:49.040Z,31.10
2019-05-20T13:59:17.541Z,32.30
2019-05-20T14:01:46.066Z,32.47
2019-05-20T14:04:14.590Z,31.77
2019-05-20T14:06:43.077Z,32.13
2019-05-20T14:09:11.555Z,33.60
2019-05-20T14:11:39.987Z,30.70
2019-05-20T14:14:08.618Z,32.27
2019-05-20T14:16:37.251Z,31.60
2019-05-20T14:19:05.735Z,30.93
2019-05-20T14:21:34.265Z,32.43
2019-05-20T14:24:02.796Z,30.47
2019-05-20T14:26:31.310Z,31.50
2019-05-20T14:28:59.811Z,30.60
2019-05-20T14:31:28.228Z,31.80
2019-05-20T14:33:56.636Z,31.17
2019-05-20T14:36:39.514Z,30.90
2019-05-20T14:38:55.506Z,31.07
2019-05-20T14:41:24.022Z,31.73
2019-05-20T14:43:52.539Z,30.17
2019-05-20T14:46:21.024Z,31.10
2019-05-20T14:48:49.491Z,30.87
2019-05-20T14:51:17.960Z,32.57
2019-05-20T14:53:46.392Z,34.00
2019-05-20T14:56:14.808Z,34.67
2019-05-20T14:58:43.314Z,35.20
2019-05-20T15:01:11.812Z,33.80
2019-05-20T15:03:40.283Z,35.03
2019-05-20T15:06:08.851Z,34.30
2019-05-20T15:08:37.340Z,34.47
2019-05-20T15:11:05.837Z,34.70
2019-05-20T15:13:34.332Z,35.33
2019-05-20T15:16:02.841Z,34.47
2019-05-20T15:18:31.387Z,35.63
2019-05-20T15:20:59.902Z,34.93
2019-05-20T15:23:28.408Z,34.50
2019-05-20T15:25:56.963Z,33.50
2019-05-20T15:28:25.447Z,34.07
2019-05-20T15:30:54.030Z,33.00
2019-05-20T15:33:22.480Z,33.40
2019-05-20T15:35:50.995Z,34.77
2019-05-20T15:38:19.534Z,33.03
2019-05-20T15:40:47.940Z,32.50
2019-05-20T15:43:16.434Z,32.03
2019-05-20T15:45:44.942Z,32.73
2019-05-20T15:48:13.441Z,31.67
2019-05-20T15:50:42.596Z,32.43
2019-05-20T15:53:12.457Z,32.33
2019-05-20T15:55:41.282Z,32.40
2019-05-20T15:58:09.792Z,31.30
2019-05-20T16:00:38.325Z,31.97
2019-05-20T16:03:06.811Z,32.53
2019-05-20T16:05:37.289Z,32.17
2019-05-20T16:08:05.772Z,31.93
2019-05-20T16:10:34.348Z,31.50
2019-05-20T16:13:02.800Z,32.87
2019-05-20T16:15:31.234Z,33.87
2019-05-20T16:17:59.770Z,32.63
2019-05-20T16:20:28.255Z,30.27
2019-05-20T16:22:56.858Z,30.83
2019-05-20T16:25:25.315Z,30.97
2019-05-20T16:27:53.818Z,31.70
2019-05-20T16:30:22.436Z,31.50
2019-05-20T16:32:50.890Z,31.00
2019-05-20T16:35:19.356Z,31.57
2019-05-20T16:37:47.807Z,31.00
2019-05-20T16:40:16.608Z,31.00
2019-05-20T16:42:45.076Z,31.53
2019-05-20T16:45:13.557Z,33.27
2019-05-20T16:47:42.088Z,31.77
2019-05-20T16:50:10.773Z,30.30
2019-05-20T16:52:39.315Z,31.53
2019-05-20T16:55:08.225Z,33.00
2019-05-20T16:57:36.758Z,33.10
2019-05-20T17:00:14.723Z,33.03
2019-05-20T17:02:36.668Z,33.70
2019-05-20T17:05:05.894Z,32.30
2019-05-20T17:07:34.400Z,33.10
2019-05-20T17:10:03.072Z,34.07
2019-05-20T17:12:31.475Z,33.33
2019-05-20T17:14:59.887Z,32.03
2019-05-20T17:17:28.455Z,33.57
2019-05-20T17:19:56.935Z,34.40
2019-05-20T17:22:25.420Z,35.00
2019-05-20T17:24:53.852Z,34.70
2019-05-20T17:27:22.319Z,36.60
2019-05-20T17:29:50.795Z,34.17
2019-05-20T17:32:19.256Z,35.83
2019-05-20T17:34:47.714Z,34.57
2019-05-20T17:37:16.328Z,34.80
2019-05-20T17:39:44.800Z,35.33
2019-05-20T17:42:14.138Z,35.20
2019-05-20T17:44:42.640Z,35.17
2019-05-20T17:47:12.990Z,34.90
2019-05-20T17:49:41.445Z,35.63
2019-05-20T17:52:09.933Z,34.50
2019-05-20T17:54:38.382Z,34.43
2019-05-20T17:57:06.848Z,37.77
2019-05-20T17:59:35.337Z,36.47
2019-05-20T18:02:05.460Z,36.00
2019-05-20T18:04:34.285Z,35.80
2019-05-20T18:07:02.764Z,36.50
2019-05-20T18:09:32.911Z,37.57
2019-05-20T18:12:01.408Z,35.83
2019-05-20T18:14:29.787Z,35.23
2019-05-20T18:16:58.355Z,35.83
2019-05-20T18:19:26.851Z,36.53
2019-05-20T18:21:55.259Z,37.53
2019-05-20T18:24:23.658Z,37.00
2019-05-20T18:26:52.164Z,38.30
2019-05-20T18:29:20.764Z,37.53
2019-05-20T18:31:49.236Z,38.27
2019-05-20T18:34:17.738Z,39.80
2019-05-20T18:36:46.148Z,39.17
2019-05-20T18:39:14.933Z,39.10
2019-05-20T18:41:43.402Z,39.00
2019-05-20T18:44:13.347Z,38.83
2019-05-20T18:46:41.941Z,39.50
2019-05-20T18:49:10.487Z,39.30
2019-05-20T18:51:40.018Z,39.27
2019-05-20T18:54:08.452Z,39.40
2019-05-20T18:56:36.934Z,40.07
2019-05-20T18:59:05.483Z,41.47
2019-05-20T19:01:46.110Z,41.33
2019-05-20T19:04:04.283Z,40.40
2019-05-20T19:06:32.689Z,41.10
2019-05-20T19:09:01.841Z,40.23
2019-05-20T19:11:30.389Z,39.40
2019-05-20T19:13:59.184Z,39.90
2019-05-20T19:16:27.828Z,40.27
2019-05-20T19:18:56.348Z,40.00
2019-05-20T19:21:24.868Z,41.10
2019-05-20T19:23:53.492Z,41.53
2019-05-20T19:26:24.894Z,40.33
2019-05-20T19:28:52.258Z,40.23
2019-05-20T19:31:20.748Z,40.77
2019-05-20T19:33:49.442Z,39.53
2019-05-20T19:36:18.048Z,41.37
2019-05-20T19:38:46.741Z,41.10
2019-05-20T19:41:18.636Z,42.87
2019-05-20T19:43:47.244Z,40.53
2019-05-20T19:46:15.761Z,42.77
2019-05-20T19:48:44.298Z,41.47
2019-05-20T19:51:12.912Z,40.93
2019-05-20T19:53:41.407Z,39.93
2019-05-20T19:56:10.004Z,41.47
2019-05-20T19:58:38.635Z,41.10
2019-05-20T20:01:07.246Z,41.30
2019-05-20T20:03:35.719Z,39.23
2019-05-20T20:06:05.209Z,42.13
2019-05-20T20:08:33.685Z,40.03
2019-05-20T20:11:02.217Z,40.20
2019-05-20T20:13:33.927Z,39.23
2019-05-20T20:16:00.880Z,40.10
2019-05-20T20:18:29.385Z,39.47
2019-05-20T20:20:57.856Z,40.60
2019-05-20T20:23:26.362Z,38.87
2019-05-20T20:25:55.030Z,37.90
2019-05-20T20:28:27.219Z,39.23
2019-05-20T20:30:56.026Z,38.47
2019-05-20T20:33:24.936Z,38.00
2019-05-20T20:35:59.780Z,38.87
2019-05-20T20:38:28.772Z,38.67
2019-05-20T20:40:57.243Z,37.40
2019-05-20T20:43:25.765Z,38.20
2019-05-20T20:45:54.270Z,38.43
2019-05-20T20:48:22.826Z,40.10
2019-05-20T20:50:51.382Z,38.60
2019-05-20T20:53:19.896Z,37.60
2019-05-20T20:55:50.508Z,37.47
2019-05-20T20:58:18.946Z,38.70
2019-05-20T21:00:47.408Z,36.33
2019-05-20T21:03:15.918Z,36.07
2019-05-20T21:05:44.427Z,36.10
2019-05-20T21:08:12.855Z,35.73
2019-05-20T21:10:41.319Z,36.20
2019-05-20T21:13:09.852Z,35.30
2019-05-20T21:15:38.385Z,34.30
2019-05-20T21:18:06.833Z,35.07
2019-05-20T21:20:35.360Z,34.97
2019-05-20T21:23:03.878Z,33.77
2019-05-20T21:25:32.275Z,35.40
2019-05-20T21:28:01.049Z,34.10
2019-05-20T21:30:29.429Z,34.87
2019-05-20T21:33:08.962Z,35.83
2019-05-20T21:35:28.263Z,34.83
2019-05-20T21:37:56.746Z,33.67
2019-05-20T21:40:25.271Z,33.03
2019-05-20T21:42:53.724Z,34.03
2019-05-20T21:45:22.198Z,35.03
2019-05-20T21:47:50.610Z,35.60
2019-05-20T21:50:19.148Z,36.70
2019-05-20T21:52:47.591Z,34.17
2019-05-20T21:55:15.972Z,34.03
2019-05-20T21:57:44.396Z,35.33
2019-05-20T22:00:15.841Z,35.53
2019-05-20T22:02:59.288Z,34.37
2019-05-20T22:05:27.776Z,36.57
2019-05-20T22:07:56.444Z,33.33
2019-05-20T22:10:25.246Z,35.40
2019-05-20T22:12:53.695Z,35.10
2019-05-20T22:15:22.092Z,35.53
2019-05-20T22:17:50.495Z,35.53
2019-05-20T22:20:18.979Z,35.30
2019-05-20T22:23:09.595Z,35.67
2019-05-20T22:25:37.980Z,36.87
2019-05-20T22:28:06.501Z,35.87
2019-05-20T22:30:34.971Z,37.70
2019-05-20T22:33:03.429Z,36.30
2019-05-20T22:35:31.949Z,36.70
2019-05-20T22:38:00.426Z,37.23
2019-05-20T22:40:28.873Z,37.40
2019-05-20T22:42:57.531Z,37.80
2019-05-20T22:45:26.007Z,37.13
2019-05-20T22:47:54.459Z,37.87
2019-05-20T22:50:22.951Z,38.13
2019-05-20T22:52:51.425Z,38.60
2019-05-20T22:55:26.300Z,37.77
2019-05-20T22:57:54.709Z,40.07
2019-05-20T23:00:23.179Z,38.73
2019-05-20T23:02:51.668Z,37.93
2019-05-20T23:05:20.143Z,38.93
2019-05-20T23:07:48.545Z,39.73
2019-05-20T23:10:17.148Z,40.53
2019-05-20T23:12:45.551Z,41.37
2019-05-20T23:15:14.160Z,41.67
2019-05-20T23:17:42.593Z,42.07
2019-05-20T23:20:11.035Z,40.83
2019-05-20T23:22:39.437Z,41.37
2019-05-20T23:25:07.969Z,41.00
2019-05-20T23:27:36.550Z,42.70
2019-05-20T23:30:05.396Z,40.80
2019-05-20T23:32:33.956Z,43.87
2019-05-20T23:35:02.517Z,43.83
2019-05-20T23:37:31.030Z,42.80
2019-05-20T23:39:59.607Z,41.00
2019-05-20T23:42:28.088Z,42.33
2019-05-20T23:44:56.496Z,42.83
2019-05-20T23:47:25.128Z,45.93
2019-05-20T23:49:53.641Z,45.60
2019-05-20T23:52:22.169Z,45.80
2019-05-20T23:54:51.112Z,47.60
2019-05-20T23:57:19.700Z,48.07
2019-05-20T23:59:48.152Z,49.87
